Latest Weather Observations for Lismore Airport

IDN60801

Issued at 8:32 am EST Saturday 7 May 2016 (issued every 30 minutes, with the page automatically refreshed every 10 minutes)

About weather observations | Map of weather stations | Latest weather observations for NSW | Other Formats
Station Details ID: 058214 Name: LISMORE AIRPORT AWS Lat: -28.83 Lon: 153.26 Height: 9.21 m
Data from the previous 72 hours. | See also: Recent months at Lismore Airport
Date/Time
EST
Temp
°C
App
Temp
°C
Dew
Point
Rel
Hum
%
Delta-T
°C
Wind Press
QNH
hPa
Press
MSL
hPa
Rain
since 9 am
mm
Dir
 
Spd
km/h
Gust
km/h
Spd
kts
Gust
kts
07/08:30am 17.2 17.5 16.9 98 0.2 NNW 11 13 6 7 1021.2 1021.2 0.2
07/08:00am 16.7 17.1 16.4 98 0.2 NNW 9 11 5 6 1021.0 1021.0 0.2
07/07:30am 16.1 15.9 15.8 98 0.2 NNW 11 13 6 7 1020.7 1020.7 0.2
07/07:00am 15.9 15.7 15.6 98 0.2 NNW 11 13 6 7 1020.4 1020.4 0.2
07/06:30am 15.9 16.4 15.6 98 0.2 NNW 7 9 4 5 1020.0 1020.0 0.2
07/06:00am 15.7 15.8 15.4 98 0.2 N 9 13 5 7 1020.0 1020.0 0.2
07/05:30am 15.9 16.6 15.6 98 0.2 N 6 9 3 5 1020.2 1020.2 0.2
07/05:00am 15.8 15.9 15.5 98 0.2 N 9 13 5 7 1020.0 1020.0 0.2
07/04:30am 15.7 15.4 15.4 98 0.2 N 11 13 6 7 1019.9 1019.9 0.2
07/04:00am 15.7 17.5 15.4 98 0.2 CALM 0 0 0 0 1019.5 1019.5 0.2
07/03:30am 15.5 17.2 15.2 98 0.2 CALM 0 0 0 0 1019.2 1019.2 0.2
07/03:00am 15.2 16.8 14.9 98 0.2 CALM 0 0 0 0 1019.2 1019.2 0.2
07/02:30am 14.9 16.4 14.6 98 0.2 CALM 0 0 0 0 1019.4 1019.4 0.2
07/02:00am 14.6 16.0 14.3 98 0.2 CALM 0 0 0 0 1019.1 1019.1 0.0
07/01:30am 15.6 15.6 15.3 98 0.2 N 9 11 5 6 1019.2 1019.2 0.0
07/01:00am 15.5 15.5 15.2 98 0.2 N 9 11 5 6 1019.2 1019.2 0.0
07/12:30am 15.0 14.8 14.7 98 0.2 N 9 11 5 6 1019.1 1019.1 0.0
07/12:00am 15.4 15.4 15.1 98 0.2 N 9 11 5 6 1019.1 1019.1 0.0
 
Date/Time
EST
Temp
°C
App
Temp
°C
Dew
Point
Rel
Hum
%
Delta-T
°C
Wind Press
QNH
hPa
Press
MSL
hPa
Rain
since 9 am
mm
Dir
 
Spd
km/h
Gust
km/h
Spd
kts
Gust
kts
06/11:30pm 15.4 15.7 15.1 98 0.2 N 7 9 4 5 1019.2 1019.2 0.0
06/11:00pm 15.6 15.2 15.3 98 0.2 N 11 13 6 7 1019.4 1019.4 0.0
06/10:30pm 14.9 14.6 14.4 97 0.3 N 9 11 5 6 1019.4 1019.4 0.0
06/10:00pm 15.6 15.6 15.1 97 0.3 N 9 11 5 6 1019.5 1019.5 0.0
06/09:57pm 15.5 15.4 15.0 97 0.3 N 9 11 5 6 1019.5 1019.5 0.0
06/09:41pm 15.5 15.3 14.7 95 0.5 N 9 11 5 6 1019.6 1019.6 0.0
06/09:30pm 16.1 15.8 15.5 96 0.3 N 11 13 6 7 1019.6 1019.6 0.0
06/09:00pm 15.7 15.0 14.4 92 0.7 N 11 13 6 7 1019.5 1019.5 0.0
06/08:30pm 17.5 17.6 16.5 94 0.6 N 11 13 6 7 1019.6 1019.6 0.0
06/08:00pm 17.4 17.9 16.6 95 0.5 N 9 13 5 7 1019.3 1019.3 0.0
06/07:30pm 17.2 17.5 15.9 92 0.8 N 9 11 5 6 1019.1 1019.1 0.0
06/07:00pm 18.3 20.3 16.1 87 1.3 CALM 0 9 0 5 1018.9 1018.9 0.0
06/06:30pm 20.2 21.4 17.4 84 1.7 NE 7 13 4 7 1018.7 1018.7 0.0
06/06:00pm 21.3 21.6 17.9 81 2.1 E 13 20 7 11 1018.2 1018.2 0.0
06/05:30pm 21.7 21.7 18.1 80 2.2 ENE 15 20 8 11 1017.7 1017.7 0.0
06/05:00pm 22.3 23.1 18.1 77 2.6 ENE 11 17 6 9 1017.4 1017.4 0.0
06/04:30pm 23.5 23.4 17.9 71 3.5 ENE 15 19 8 10 1017.0 1017.0 0.0
06/04:00pm 25.2 25.4 17.7 63 4.7 E 13 20 7 11 1016.8 1016.8 0.0
06/03:30pm 26.4 27.3 16.1 53 6.3 ENE 6 15 3 8 1016.7 1016.7 0.0
06/03:00pm 27.1 28.4 16.1 51 6.8 ENE 4 9 2 5 1016.8 1016.8 0.0
06/02:30pm 26.3 25.6 14.4 48 7.1 NE 11 15 6 8 1017.0 1017.0 0.0
06/02:00pm 26.4 26.8 15.4 50 6.7 NNE 7 17 4 9 1017.1 1017.1 0.0
06/01:30pm 26.8 27.2 15.2 49 7.0 NNE 7 13 4 7 1017.2 1017.2 0.0
06/01:00pm 26.6 27.8 15.9 51 6.5 ENE 4 17 2 9 1017.6 1017.6 0.0
06/12:30pm 25.6 26.7 16.5 57 5.6 E 6 11 3 6 1017.9 1017.9 0.0
06/12:00pm 25.3 27.3 17.0 60 5.1 ESE 2 9 1 5 1018.4 1018.4 0.0
06/11:30am 23.9 24.5 16.9 65 4.3 SE 9 13 5 7 1019.0 1019.0 0.0
06/11:00am 23.5 24.7 17.3 68 3.8 S 7 11 4 6 1019.4 1019.4 0.0
06/10:30am 22.4 23.8 17.3 73 3.1 SE 6 11 3 6 1019.8 1019.8 0.0
06/10:00am 21.2 23.6 17.0 77 2.6 CALM 0 0 0 0 1020.0 1020.0 0.0
06/09:30am 19.2 21.3 16.2 83 1.8 CALM 0 6 0 3 1020.1 1020.1 0.0
06/09:00am 17.1 18.5 16.3 95 0.5 NNW 4 9 2 5 1020.3 1020.3 0.6
06/08:52am 16.4 18.3 15.8 96 0.4 CALM 0 6 0 3 1020.4 1020.4 0.6
06/08:34am 15.7 16.3 15.4 98 0.2 N 6 9 3 5 1020.3 1020.3 0.6
06/08:30am 15.2 15.7 14.9 98 0.2 N 6 9 3 5 1020.3 1020.3 0.6
06/08:00am 14.1 14.0 13.8 98 0.2 N 7 9 4 5 1020.3 1020.3 0.6
06/07:30am 13.2 12.4 12.9 98 0.2 N 9 11 5 6 1020.0 1020.0 0.6
06/07:00am 12.8 13.2 12.5 98 0.2 N 2 7 1 4 1019.8 1019.8 0.6
06/06:30am 12.3 11.2 12.0 98 0.2 N 9 11 5 6 1019.5 1019.5 0.6
06/06:00am 12.5 11.1 12.2 98 0.2 N 11 13 6 7 1019.1 1019.1 0.6
06/05:30am 12.6 13.3 12.3 98 0.2 CALM 0 6 0 3 1018.6 1018.6 0.4
06/05:00am 12.6 11.6 12.3 98 0.2 N 9 9 5 5 1018.3 1018.3 0.4
06/04:30am 12.7 11.4 12.4 98 0.2 N 11 13 6 7 1018.4 1018.4 0.4
06/04:00am 12.6 11.2 12.3 98 0.2 N 11 13 6 7 1018.5 1018.5 0.4
06/03:30am 12.8 11.5 12.5 98 0.2 N 11 13 6 7 1018.4 1018.4 0.4
06/03:00am 13.0 11.8 12.7 98 0.2 NNE 11 11 6 6 1018.5 1018.5 0.4
06/02:30am 13.2 14.1 12.9 98 0.2 CALM 0 0 0 0 1018.7 1018.7 0.4
06/02:00am 13.1 12.6 12.6 97 0.3 NNE 7 9 4 5 1018.8 1018.8 0.4
06/01:39am 13.4 14.3 12.9 97 0.3 CALM 0 6 0 3 1019.1 1019.1 0.4
06/01:30am 13.2 12.9 12.7 97 0.3 NNW 6 9 3 5 1019.2 1019.2 0.4
06/01:11am 13.8 12.8 13.5 98 0.2 N 11 13 6 7 1019.1 1019.1 0.4
06/01:00am 13.5 12.7 13.0 97 0.3 N 9 13 5 7 1019.1 1019.1 0.4
06/12:30am 13.7 12.6 13.2 97 0.3 N 11 11 6 6 1019.3 1019.3 0.4
06/12:00am 13.7 12.6 13.2 97 0.3 N 11 13 6 7 1019.2 1019.2 0.4
 
Date/Time
EST
Temp
°C
App
Temp
°C
Dew
Point
Rel
Hum
%
Delta-T
°C
Wind Press
QNH
hPa
Press
MSL
hPa
Rain
since 9 am
mm
Dir
 
Spd
km/h
Gust
km/h
Spd
kts
Gust
kts
05/11:30pm 13.8 13.1 13.3 97 0.3 N 9 11 5 6 1019.2 1019.2 0.4
05/11:00pm 14.1 15.2 13.5 96 0.3 CALM 0 0 0 0 1019.3 1019.3 0.4
05/10:55pm 14.2 15.4 13.7 97 0.3 CALM 0 0 0 0 1019.4 1019.4 0.4
05/10:30pm 14.3 15.4 13.5 95 0.4 CALM 0 0 0 0 1019.4 1019.4 0.4
05/10:15pm 14.8 16.1 14.2 96 0.3 CALM 0 0 0 0 1019.4 1019.4 0.4
05/10:00pm 14.8 16.1 14.2 96 0.3 CALM 0 0 0 0 1019.6 1019.6 0.4
05/09:30pm 15.2 16.7 14.7 97 0.3 CALM 0 0 0 0 1019.6 1019.6 0.4
05/09:00pm 14.9 16.2 14.1 95 0.4 CALM 0 0 0 0 1019.6 1019.6 0.4
05/08:30pm 15.1 16.4 14.0 93 0.6 CALM 0 0 0 0 1019.6 1019.6 0.4
05/08:00pm 16.6 18.6 16.0 96 0.4 CALM 0 0 0 0 1019.5 1019.5 0.4
05/07:30pm 15.5 16.7 13.9 90 0.9 CALM 0 0 0 0 1019.4 1019.4 0.4
05/07:00pm 16.5 17.9 14.3 87 1.3 CALM 0 0 0 0 1019.0 1019.0 0.4
05/06:30pm 17.1 18.6 14.6 85 1.4 CALM 0 0 0 0 1018.7 1018.7 0.4
05/06:00pm 19.9 20.3 16.3 80 2.2 ENE 9 15 5 8 1018.5 1018.5 0.4
05/05:30pm 19.7 20.9 14.9 74 2.8 ESE 2 7 1 4 1018.3 1018.3 0.4
05/05:00pm 21.1 21.1 15.2 69 3.5 ESE 9 13 5 7 1018.1 1018.1 0.4
05/04:30pm 22.7 22.3 15.3 63 4.4 ESE 11 15 6 8 1017.9 1017.9 0.4
05/04:00pm 23.7 23.0 15.5 60 4.9 SE 13 20 7 11 1017.8 1017.8 0.4
05/03:30pm 24.2 23.2 15.7 59 5.1 ESE 15 19 8 10 1017.6 1017.6 0.4
05/03:00pm 25.6 27.2 15.9 55 5.9 SSE 2 7 1 4 1017.6 1017.6 0.4
05/02:30pm 23.9 24.5 15.9 61 4.8 ESE 7 11 4 6 1017.6 1017.6 0.4
05/02:00pm 25.3 25.6 15.9 56 5.7 SE 9 15 5 8 1017.7 1017.7 0.4
05/01:30pm 25.3 27.4 16.2 57 5.6 CALM 0 0 0 0 1017.8 1017.8 0.4
05/01:00pm 25.0 27.1 16.2 58 5.4 CALM 0 6 0 3 1018.2 1018.2 0.4
05/12:30pm 24.7 25.1 16.2 59 5.2 SE 9 13 5 7 1018.7 1018.7 0.4
05/12:00pm 24.2 24.8 15.9 59 5.0 SSE 7 13 4 7 1019.3 1019.3 0.4
05/11:30am 23.9 25.7 16.4 63 4.6 WSW 2 9 1 5 1019.8 1019.8 0.4
05/11:00am 23.3 23.8 15.6 62 4.6 SSE 7 11 4 6 1020.2 1020.2 0.0
05/10:30am 22.4 24.0 16.0 67 3.9 W 2 9 1 5 1020.7 1020.7 0.0
05/10:00am 21.2 21.7 15.5 70 3.4 SW 7 13 4 7 1021.0 1021.0 0.0
05/09:30am 20.1 21.9 15.5 75 2.7 CALM 0 0 0 0 1021.4 1021.4 0.0
05/09:00am 18.0 19.3 15.1 83 1.7 NE 2 7 1 4 1021.4 1021.4 0.2
05/08:30am 16.2 16.0 14.6 90 0.9 N 9 11 5 6 1021.3 1021.3 0.2
05/08:00am 14.6 13.7 13.6 94 0.6 N 11 13 6 7 1021.1 1021.1 0.2
05/07:30am 13.4 12.6 12.8 96 0.3 N 9 13 5 7 1020.9 1020.9 0.2
05/07:00am 11.9 10.7 11.6 98 0.2 NNE 9 11 5 6 1020.7 1020.7 0.2
05/06:30am 11.0 9.9 10.7 98 0.2 NNE 7 11 4 6 1020.4 1020.4 0.2
05/06:00am 11.0 9.9 10.5 97 0.3 N 7 9 4 5 1020.0 1020.0 0.2
05/05:56am 11.0 9.9 10.5 97 0.3 N 7 9 4 5 1020.0 1020.0 0.2
05/05:46am 10.9 9.7 10.4 97 0.3 NNE 7 9 4 5 1019.9 1019.9 0.2
05/05:30am 11.1 10.0 10.6 97 0.3 N 7 9 4 5 1019.7 1019.7 0.2
05/05:26am 11.1 10.0 10.6 97 0.3 N 7 9 4 5 1019.6 1019.6 0.2
05/05:25am 11.2 10.1 10.7 97 0.3 N 7 9 4 5 1019.6 1019.6 0.2
05/05:00am 11.6 10.3 11.3 98 0.2 N 9 11 5 6 1019.3 1019.3 0.2
05/04:57am 11.6 10.3 11.1 97 0.3 N 9 11 5 6 1019.3 1019.3 0.2
05/04:53am 11.6 10.3 11.1 97 0.3 N 9 11 5 6 1019.2 1019.2 0.2
05/04:30am 11.8 10.5 11.3 97 0.3 N 9 11 5 6 1019.0 1019.0 0.2
05/04:01am 12.3 10.8 12.0 98 0.2 N 11 13 6 7 1018.7 1018.7 0.2
05/04:00am 12.3 10.8 12.0 98 0.2 N 11 13 6 7 1018.7 1018.7 0.2
05/03:55am 12.3 10.5 12.0 98 0.2 N 13 15 7 8 1018.7 1018.7 0.2
05/03:30am 12.0 10.4 11.7 98 0.2 N 11 13 6 7 1018.5 1018.5 0.2
05/03:00am 12.0 11.2 11.7 98 0.2 N 7 11 4 6 1018.4 1018.4 0.2
05/02:30am 11.8 10.9 11.5 98 0.2 N 7 11 4 6 1018.5 1018.5 0.2
05/02:04am 11.1 11.3 10.5 96 0.3 CALM 0 0 0 0 1018.5 1018.5 0.2
05/02:00am 11.1 11.3 10.5 96 0.3 CALM 0 0 0 0 1018.5 1018.5 0.2
05/01:31am 11.2 11.3 10.0 92 0.6 CALM 0 0 0 0 1018.7 1018.7 0.2
05/01:30am 11.3 11.4 10.0 92 0.7 CALM 0 0 0 0 1018.7 1018.7 0.2
05/01:00am 12.9 12.3 12.3 96 0.3 NNE 7 7 4 4 1018.8 1018.8 0.2
05/12:30am 13.3 13.0 12.7 96 0.3 N 6 9 3 5 1018.9 1018.9 0.0
05/12:00am 13.0 13.7 12.2 95 0.4 CALM 0 2 0 1 1018.9 1018.9 0.0
 
Date/Time
EST
Temp
°C
App
Temp
°C
Dew
Point
Rel
Hum
%
Delta-T
°C
Wind Press
QNH
hPa
Press
MSL
hPa
Rain
since 9 am
mm
Dir
 
Spd
km/h
Gust
km/h
Spd
kts
Gust
kts
04/11:30pm 13.9 14.1 13.1 95 0.4 NNW 4 9 2 5 1019.1 1019.1 0.0
04/11:00pm 14.2 13.6 13.4 95 0.4 N 9 13 5 7 1019.1 1019.1 0.0
04/10:30pm 14.5 13.3 14.0 97 0.3 N 13 17 7 9 1019.1 1019.1 0.0
04/10:00pm 14.4 13.4 13.4 94 0.6 N 11 13 6 7 1019.0 1019.0 0.0
04/09:30pm 14.7 14.2 13.7 94 0.6 N 9 11 5 6 1019.0 1019.0 0.0
04/09:00pm 14.5 13.5 13.5 94 0.6 N 11 13 6 7 1018.8 1018.8 0.0
04/08:30pm 14.6 13.3 13.8 95 0.4 N 13 13 7 7 1018.7 1018.7 0.0
04/08:00pm 14.8 16.0 13.7 93 0.6 CALM 0 11 0 6 1018.4 1018.4 0.0
04/07:30pm 14.8 15.6 12.7 87 1.2 CALM 0 0 0 0 1018.1 1018.1 0.0
04/07:00pm 15.3 16.3 13.3 88 1.1 CALM 0 0 0 0 1017.9 1017.9 0.0
04/06:30pm 16.2 17.3 13.5 84 1.5 CALM 0 0 0 0 1017.5 1017.5 0.0
04/06:00pm 16.4 17.4 13.3 82 1.7 CALM 0 0 0 0 1017.1 1017.1 0.0
04/05:30pm 18.2 19.3 13.5 74 2.7 CALM 0 0 0 0 1016.5 1016.5 0.0
04/05:00pm 21.2 20.9 14.4 65 4.0 E 9 13 5 7 1016.2 1016.2 0.0
04/04:30pm 22.5 22.2 14.4 60 4.8 ESE 9 15 5 8 1015.8 1015.8 0.0
04/04:00pm 23.6 22.8 14.0 55 5.6 SE 11 15 6 8 1015.6 1015.6 0.0
04/03:30pm 24.2 22.9 13.7 52 6.1 ESE 13 17 7 9 1015.1 1015.1 0.0
04/03:00pm 24.5 22.8 14.6 54 5.9 SE 17 22 9 12 1014.8 1014.8 0.0
04/02:30pm 24.8 23.2 12.7 47 7.0 SSE 13 19 7 10 1014.6 1014.6 0.0
04/02:00pm 25.2 22.8 12.8 46 7.2 S 17 26 9 14 1014.4 1014.4 0.0
04/01:30pm 25.4 24.0 13.3 47 7.1 SSE 13 19 7 10 1014.6 1014.6 0.0
04/01:00pm 25.1 23.9 13.9 49 6.6 SE 13 20 7 11 1014.8 1014.8 0.0
04/12:30pm 25.2 22.9 13.1 47 7.0 S 17 24 9 13 1015.1 1015.1 0.0
04/12:00pm 24.9 22.8 12.5 46 7.1 S 15 22 8 12 1015.5 1015.5 0.0
04/11:30am 24.5 23.7 12.8 48 6.8 SSE 9 15 5 8 1016.0 1016.0 0.0
04/11:00am 24.5 24.6 12.8 48 6.7 SSE 4 11 2 6 1016.3 1016.3 0.0
04/10:30am 24.3 24.3 12.3 47 6.9 NNE 4 13 2 7 1016.7 1016.7 0.0
04/10:00am 23.1 23.6 12.7 52 5.9 SW 2 9 1 5 1017.0 1017.0 0.0
04/09:30am 22.7 24.4 15.3 63 4.4 CALM 0 0 0 0 1017.2 1017.2 0.0
04/09:00am 20.8 22.5 15.1 70 3.4 CALM 0 0 0 0 1017.2 1017.2 0.4

Other Formats:

Comma delimited format used in spreadsheet applications
http://www.bom.gov.au/fwo/IDN60801/IDN60801.94572.axf

JavaScript Object Notation format (JSON) in row-major order
http://www.bom.gov.au/fwo/IDN60801/IDN60801.94572.json